Terminal Aerodrome Forecast
Issued by NWS

Home | Current Version | Previous Version | Text Only | Print | Product List | Glossary On
Versions: 1 2 3 4 5 6 7 8 9 10 11 12 13
000
FTUS45 KRIW 230500
TAFRKS
TAF
KRKS 230524Z 2306/2406 29011KT P6SM -SHRA SCT024 OVC040
      TEMPO 2306/2310 BKN024
     FM231200 28010KT P6SM VCSH SCT024 BKN040
     FM231800 27020G30KT P6SM VCSH SCT026 BKN040
     FM232200 27020G30KT P6SM SCT030 BKN050
     FM240100 27012KT P6SM SCT040 BKN070=

USA.gov is the U.S. government's official web portal to all federal, state and local government web resources and services.